Airfield :
LOGIN :

Register | Disclaimer

   EN    FR    IT 

 










Legend :    VFR   Marginal VFR   IFR   Intensive IFR   Very Intensive IFR
Visi :
Ceiling :
>= 8 km
>= 3000ft
5 to 8 km
1000 to 3000 ft
1500m to 5 km
500 to 1000 ft
800 to 1500m
200 to 500 ft
< 800m
< 200 ft
Symbols :   Thunderstorms  Fog  Heavy snow  Heavy precipitations  Wind > 20 kt
SIGMETs :     Misc.  Thunderstorms  Icing  Turbulence  Mountain Waves  Volcanic Ashes







- Airport Elevation : 348 ft
- IATA code : STN
- Download approach charts


EGSS - London Stansted

CURRENT METAR :
  • 260320Z AUTO 13002KT 5000 HZ NCD 17/14 Q1019

EXPIRED METARs :
  • 260250Z AUTO 20003KT 5000 HZ NCD 16/14 Q1019
  • 260220Z AUTO 14002KT 5000 HZ NCD 17/14 Q1019
  • 260150Z AUTO 11001KT 6000 NCD 17/14 Q1019
  • 260120Z AUTO 14002KT 6000 NCD 17/14 Q1019
  • 260050Z AUTO VRB02KT 6000 NCD 19/15 Q1019

TAF TAF EGSS
Valid from the 26 at 00:00 until the 27 at 06:00 UTC


252257Z 2600/2706 VRB04KT CAVOK
BECMG 2600/2603 7000
PROB30 2602/2608 4000 HZ
BECMG 2608/2611 11010KT CAVOK
BECMG 2622/2701 6000
PROB40 2702/2706 3000 BR
ATIS : +44 1279 669 325
No reported NOTAMs for that airfield.



MET'MAP, your aeronautical weather chart ! - Copyright ORBIFLY December 2007 - Disclaimer

ORBIFLY MET'MAP TEAM :

Programming & Development : Alexandra Zaïnal
Concept & Development : Baudouin d'Aumeries
Co-Development & Prog : Marc-Olivier Méhu
Technical & hardware support : Manuel Goepfert

Contact : metmap@orbifly.com




SOURCES & CREDITS :

   NOAA